Time;durP1;ratioP1;P1;durP2;ratioP2;P2;SDS_P1;SDS_P2;PMS_P1;PMS_P2;Temp;Humidity;BMP_temperature;BMP_pressure;BME280_temperature;BME280_humidity;BME280_pressure;Samples;Min_cycle;Max_cycle;Signal;HPM_P1;HPM_P2
2023/08/17 00:00:08;;;;;;;2.28;1.45;;;;;;;18.86;77.02;101824.28;5026282;28;20136;-71
2023/08/17 00:02:35;;;;;;;2.88;1.27;;;;;;;18.88;76.07;101816.19;5037020;28;20041;-72
2023/08/17 00:05:02;;;;;;;2.47;1.38;;;;;;;18.86;76.20;101823.41;5025966;28;20049;-72
2023/08/17 00:07:30;;;;;;;3.05;1.48;;;;;;;18.80;76.10;101824.56;5025149;28;20041;-72
2023/08/17 00:09:57;;;;;;;3.70;1.40;;;;;;;18.80;76.15;101815.69;5026524;28;20430;-72
2023/08/17 00:12:24;;;;;;;2.88;1.45;;;;;;;18.82;75.61;101820.00;5025215;28;20217;-71
2023/08/17 00:14:53;;;;;;;3.97;1.27;;;;;;;18.84;74.61;101827.94;5025834;28;20049;-71
2023/08/17 00:17:22;;;;;;;2.70;1.23;;;;;;;18.80;74.76;101823.72;5008293;28;20053;-73
2023/08/17 00:19:50;;;;;;;2.50;1.08;;;;;;;18.78;74.28;101824.66;5026140;28;20187;-72
2023/08/17 00:22:17;;;;;;;1.92;1.13;;;;;;;18.76;74.67;101829.19;5024409;28;20394;-71
2023/08/17 00:24:44;;;;;;;2.33;1.23;;;;;;;18.77;74.26;101822.91;5006265;28;20050;-71
2023/08/17 00:27:12;;;;;;;2.47;1.10;;;;;;;18.74;74.01;101832.88;5024864;28;20136;-70
2023/08/17 00:29:39;;;;;;;3.83;1.20;;;;;;;18.71;74.70;101836.59;5026559;28;20104;-71
2023/08/17 00:32:06;;;;;;;2.70;1.30;;;;;;;18.69;74.55;101825.09;5024421;28;20587;-73
2023/08/17 00:34:35;;;;;;;4.40;1.23;;;;;;;18.70;74.37;101826.84;5007076;28;20437;-70
2023/08/17 00:37:03;;;;;;;3.42;1.20;;;;;;;18.65;74.55;101822.66;5024708;28;20442;-72
2023/08/17 00:39:30;;;;;;;2.58;1.00;;;;;;;18.63;74.63;101814.72;5007949;28;20116;-70
2023/08/17 00:41:57;;;;;;;3.03;1.23;;;;;;;18.61;74.37;101817.47;5024142;28;20485;-72
2023/08/17 00:44:24;;;;;;;2.70;1.27;;;;;;;18.56;74.59;101810.63;5008454;28;20041;-70
2023/08/17 00:46:51;;;;;;;6.00;1.25;;;;;;;18.56;74.74;101803.47;5006938;28;20568;-72
2023/08/17 00:49:18;;;;;;;3.05;1.20;;;;;;;18.49;74.90;101815.38;5025666;28;20052;-72
2023/08/17 00:51:46;;;;;;;5.00;1.33;;;;;;;18.43;75.43;101805.84;5025941;28;20270;-72
2023/08/17 00:54:22;;;;;;;3.85;1.50;;;;;;;18.46;75.24;101802.19;5023291;28;20054;-72
2023/08/17 00:56:51;;;;;;;4.43;1.13;;;;;;;18.45;75.34;101798.66;5007663;28;20064;-72
2023/08/17 00:59:19;;;;;;;3.08;1.30;;;;;;;18.42;75.76;101795.28;5025318;28;20103;-73
2023/08/17 01:01:47;;;;;;;3.80;1.20;;;;;;;18.35;75.79;101788.50;5026114;28;20232;-72
2023/08/17 01:04:14;;;;;;;3.55;1.30;;;;;;;18.28;76.05;101795.94;5006030;28;20394;-71
2023/08/17 01:06:41;;;;;;;3.38;1.38;;;;;;;18.24;76.27;101791.66;5025279;28;20421;-71
2023/08/17 01:09:09;;;;;;;5.30;1.55;;;;;;;18.21;76.43;101792.69;5024954;28;20045;-73
2023/08/17 01:11:44;;;;;;;4.20;1.50;;;;;;;18.15;76.71;101796.50;5025012;28;20045;-72
2023/08/17 01:14:36;;;;;;;3.05;1.52;;;;;;;18.06;77.59;101796.94;5007514;28;20386;-72
2023/08/17 01:17:24;;;;;;;2.28;1.30;;;;;;;18.05;77.17;101795.22;5023099;28;20292;-72
2023/08/17 01:19:53;;;;;;;5.88;1.50;;;;;;;17.98;77.60;101789.28;5016655;28;20034;-71
2023/08/17 01:22:22;;;;;;;4.07;1.50;;;;;;;17.94;78.10;101781.47;5011465;28;20600;-71
2023/08/17 01:24:50;;;;;;;4.93;1.58;;;;;;;17.90;78.34;101780.75;5024236;28;20041;-72
2023/08/17 01:27:17;;;;;;;3.20;1.40;;;;;;;17.88;78.10;101787.09;5024307;28;20048;-71
2023/08/17 01:29:44;;;;;;;5.97;1.75;;;;;;;17.82;79.07;101782.91;5025088;28;20095;-73
2023/08/17 01:32:48;;;;;;;6.05;1.80;;;;;;;17.80;79.13;101787.44;5026141;28;20099;-72
2023/08/17 01:35:37;;;;;;;4.50;1.30;;;;;;;17.77;79.11;101790.25;5004976;28;20061;-73
2023/08/17 01:38:15;;;;;;;3.00;1.55;;;;;;;17.72;79.59;101784.28;5006161;28;20493;-72
2023/08/17 01:40:47;;;;;;;4.35;1.80;;;;;;;17.68;79.65;101789.72;5007177;28;20096;-73
2023/08/17 01:43:16;;;;;;;4.38;1.55;;;;;;;17.66;79.78;101794.25;5006217;28;20127;-70
2023/08/17 01:45:44;;;;;;;3.45;1.60;;;;;;;17.60;79.96;101791.88;5025190;28;20038;-72
2023/08/17 01:48:11;;;;;;;3.15;1.88;;;;;;;17.56;80.20;101792.94;5023492;28;20122;-72
2023/08/17 01:50:38;;;;;;;7.07;1.75;;;;;;;17.50;80.28;101783.41;5007049;28;20037;-72
2023/08/17 01:53:05;;;;;;;5.35;1.70;;;;;;;17.49;80.33;101795.03;5024317;28;20038;-72
2023/08/17 01:55:35;;;;;;;6.50;1.90;;;;;;;17.46;80.67;101796.94;5024172;28;20568;-72
2023/08/17 01:58:02;;;;;;;3.30;1.55;;;;;;;17.45;80.44;101793.44;5003569;28;20070;-72
2023/08/17 02:00:29;;;;;;;5.03;1.70;;;;;;;17.42;80.41;101793.56;5022529;28;20053;-73
2023/08/17 02:02:56;;;;;;;4.07;1.80;;;;;;;17.37;81.39;101790.25;5009719;28;20048;-72
2023/08/17 02:05:28;;;;;;;5.90;1.90;;;;;;;17.35;81.47;101797.44;5008270;28;20458;-72
2023/08/17 02:07:55;;;;;;;3.33;1.60;;;;;;;17.33;81.17;101799.31;5008361;28;20054;-71
2023/08/17 02:10:22;;;;;;;3.88;1.80;;;;;;;17.31;81.38;101798.50;5008687;28;20046;-71
2023/08/17 02:12:49;;;;;;;3.35;1.88;;;;;;;17.32;81.36;101806.44;5024217;28;20048;-72
2023/08/17 02:15:25;;;;;;;5.03;1.65;;;;;;;17.26;81.56;101814.69;5023204;28;20528;-72
2023/08/17 02:17:52;;;;;;;5.25;1.70;;;;;;;17.25;81.42;101809.44;5007581;28;20050;-72
2023/08/17 02:20:19;;;;;;;5.97;1.92;;;;;;;17.22;81.63;101815.75;5008698;28;20048;-72
2023/08/17 02:22:46;;;;;;;5.05;1.55;;;;;;;17.22;81.65;101813.09;5022198;28;20038;-71
2023/08/17 02:25:13;;;;;;;4.25;1.70;;;;;;;17.20;81.61;101814.97;5006476;28;20521;-72
2023/08/17 02:27:40;;;;;;;4.97;2.00;;;;;;;17.20;81.86;101817.63;5009205;28;20050;-72
2023/08/17 02:30:08;;;;;;;2.95;1.52;;;;;;;17.19;81.75;101811.44;5008582;28;20042;-72
2023/08/17 02:32:35;;;;;;;5.60;1.75;;;;;;;17.19;81.81;101805.22;5006951;28;20038;-71
2023/08/17 02:35:03;;;;;;;5.03;1.80;;;;;;;17.21;81.81;101808.69;5005296;28;20060;-71
2023/08/17 02:37:30;;;;;;;4.22;1.80;;;;;;;17.21;82.24;101798.91;5021742;28;20508;-72
2023/08/17 02:39:57;;;;;;;2.60;1.48;;;;;;;17.23;81.91;101799.69;5007774;28;20406;-72
2023/08/17 02:42:24;;;;;;;6.32;1.90;;;;;;;17.27;81.83;101795.09;5008132;28;20071;-72
2023/08/17 02:44:53;;;;;;;6.57;1.50;;;;;;;17.28;81.44;101790.66;5006108;28;20038;-71
2023/08/17 02:47:20;;;;;;;6.10;1.70;;;;;;;17.33;80.82;101791.31;4990423;28;20133;-72
2023/08/17 02:49:49;;;;;;;4.50;1.60;;;;;;;17.32;80.83;101792.22;5006128;28;20297;-72
2023/08/17 02:52:16;;;;;;;4.85;1.95;;;;;;;17.31;81.26;101788.72;5008082;28;20084;-71
2023/08/17 02:54:43;;;;;;;4.07;1.70;;;;;;;17.33;81.32;101791.31;5009540;28;20044;-71
2023/08/17 02:57:13;;;;;;;2.80;1.48;;;;;;;17.37;81.15;101791.09;5027241;28;20076;-71
2023/08/17 02:59:40;;;;;;;5.40;1.40;;;;;;;17.34;81.19;101791.25;5027783;28;20045;-72
2023/08/17 03:02:07;;;;;;;4.03;1.52;;;;;;;17.36;80.98;101793.84;5029874;28;20099;-72
2023/08/17 03:04:34;;;;;;;5.25;2.00;;;;;;;17.36;81.17;101780.53;5026578;28;20041;-71
2023/08/17 03:07:02;;;;;;;2.65;1.50;;;;;;;17.32;81.16;101785.13;5025963;28;20052;-71
2023/08/17 03:09:29;;;;;;;5.72;1.92;;;;;;;17.32;80.84;101786.91;5008390;28;20051;-72
2023/08/17 03:11:56;;;;;;;5.50;1.90;;;;;;;17.29;81.66;101784.41;5027225;28;20107;-72
2023/08/17 03:14:23;;;;;;;4.32;1.65;;;;;;;17.28;82.17;101780.84;5027177;28;20410;-71
2023/08/17 03:16:50;;;;;;;4.47;1.52;;;;;;;17.26;81.74;101787.19;5008719;28;20045;-72
2023/08/17 03:19:18;;;;;;;6.88;1.70;;;;;;;17.25;82.02;101785.44;5027403;28;20045;-72
2023/08/17 03:21:45;;;;;;;3.95;1.75;;;;;;;17.23;82.46;101785.53;5025986;28;20136;-71
2023/08/17 03:24:12;;;;;;;3.65;1.80;;;;;;;17.19;82.04;101787.47;5008173;28;20069;-72
2023/08/17 03:26:40;;;;;;;3.08;1.45;;;;;;;17.15;82.05;101776.97;5009067;28;20485;-71
2023/08/17 03:29:09;;;;;;;4.15;1.77;;;;;;;17.12;82.38;101779.78;5010071;28;20041;-72
2023/08/17 03:31:37;;;;;;;3.72;1.67;;;;;;;17.08;82.66;101785.25;5026794;28;20059;-72
2023/08/17 03:34:07;;;;;;;5.13;1.77;;;;;;;17.04;82.71;101786.28;5008869;28;20056;-73
2023/08/17 03:36:34;;;;;;;6.97;2.20;;;;;;;17.02;83.10;101773.97;5009052;28;20498;-72
2023/08/17 03:39:01;;;;;;;3.83;1.70;;;;;;;16.96;82.98;101790.22;5026320;28;20072;-72
2023/08/17 03:41:28;;;;;;;6.63;1.83;;;;;;;16.90;83.71;101781.53;5025404;28;20052;-72
2023/08/17 03:43:55;;;;;;;3.65;1.95;;;;;;;16.84;84.02;101773.81;5024528;28;20041;-72
2023/08/17 03:46:23;;;;;;;4.50;1.90;;;;;;;16.79;84.39;101765.13;5024699;28;20052;-72
2023/08/17 03:48:51;;;;;;;5.57;1.90;;;;;;;16.72;84.81;101775.19;5025293;28;20068;-72
2023/08/17 03:51:18;;;;;;;4.45;2.25;;;;;;;16.65;85.25;101770.19;5025119;28;20097;-72
2023/08/17 03:53:46;;;;;;;3.05;2.17;;;;;;;16.59;85.50;101773.94;5008169;28;20260;-72
2023/08/17 03:56:13;;;;;;;5.95;2.25;;;;;;;16.56;86.27;101776.72;5001814;28;20054;-71
2023/08/17 03:58:42;;;;;;;6.03;2.67;;;;;;;16.54;86.54;101776.81;5022862;28;20433;-72
2023/08/17 04:01:11;;;;;;;5.15;2.25;;;;;;;16.52;86.85;101772.47;5012368;28;20115;-72
2023/08/17 04:03:41;;;;;;;4.70;2.38;;;;;;;16.52;87.37;101773.34;5007744;28;20056;-71
2023/08/17 04:06:10;;;;;;;5.43;2.30;;;;;;;16.50;87.88;101771.66;5025443;28;20125;-73
2023/08/17 04:08:38;;;;;;;5.88;2.25;;;;;;;16.50;88.03;101775.19;5026200;28;20415;-72
2023/08/17 04:11:05;;;;;;;5.68;2.40;;;;;;;16.45;88.44;101775.38;5007207;28;20055;-72
2023/08/17 04:13:33;;;;;;;5.85;2.20;;;;;;;16.40;88.59;101781.81;5026147;28;20049;-72
2023/08/17 04:16:00;;;;;;;5.93;2.47;;;;;;;16.35;88.39;101786.47;5025164;28;20041;-72
2023/08/17 04:18:27;;;;;;;6.07;2.45;;;;;;;16.32;89.13;101789.22;5008373;28;20044;-72
2023/08/17 04:20:54;;;;;;;7.80;2.65;;;;;;;16.33;89.42;101781.19;5025759;28;20084;-72
2023/08/17 04:23:22;;;;;;;5.35;2.53;;;;;;;16.30;89.65;101781.31;5008703;28;20050;-72
2023/08/17 04:25:49;;;;;;;8.82;2.70;;;;;;;16.29;89.78;101783.09;5024664;28;20131;-72
2023/08/17 04:28:16;;;;;;;8.35;2.72;;;;;;;16.28;90.09;101786.69;5007721;28;20071;-71
2023/08/17 04:30:44;;;;;;;7.28;2.90;;;;;;;16.27;90.13;101784.97;5008107;28;20064;-71
2023/08/17 04:33:12;;;;;;;6.63;2.70;;;;;;;16.27;90.23;101790.28;5025617;28;20042;-72
2023/08/17 04:35:40;;;;;;;8.35;2.70;;;;;;;16.26;90.48;101790.34;5008165;28;20524;-72
2023/08/17 04:38:07;;;;;;;6.20;2.60;;;;;;;16.27;90.57;101794.72;5025879;28;20061;-72
2023/08/17 04:40:34;;;;;;;5.30;2.40;;;;;;;16.29;90.75;101788.41;5024267;28;20038;-72
2023/08/17 04:43:01;;;;;;;5.60;2.22;;;;;;;16.36;90.60;101801.50;5025879;28;20542;-71
2023/08/17 04:45:29;;;;;;;6.50;2.58;;;;;;;16.34;90.65;101795.38;5007197;28;20361;-72
2023/08/17 04:47:56;;;;;;;5.07;2.17;;;;;;;16.37;90.58;101798.75;5008505;28;20034;-72
2023/08/17 04:50:23;;;;;;;4.72;2.20;;;;;;;16.38;90.40;101800.50;5007436;28;20045;-72
2023/08/17 04:52:52;;;;;;;6.35;2.78;;;;;;;16.43;90.09;101803.84;5007550;28;20052;-72
2023/08/17 04:55:20;;;;;;;5.65;2.38;;;;;;;16.48;90.15;101801.03;5006680;28;20505;-72
2023/08/17 04:57:48;;;;;;;7.82;2.50;;;;;;;16.52;89.94;101799.09;5005115;28;20041;-73
2023/08/17 05:00:16;;;;;;;3.95;2.47;;;;;;;16.53;90.09;101791.03;5004726;28;20067;-72
2023/08/17 05:02:43;;;;;;;4.72;2.42;;;;;;;16.54;90.01;101794.56;5006255;28;20565;-72
2023/08/17 05:05:11;;;;;;;3.55;2.17;;;;;;;16.55;89.71;101790.97;5023661;28;20156;-72
2023/08/17 05:07:39;;;;;;;5.43;2.40;;;;;;;16.55;89.89;101796.28;5023794;28;20046;-72
2023/08/17 05:10:07;;;;;;;6.35;2.17;;;;;;;16.57;89.73;101791.78;5003440;28;20426;-71
2023/08/17 05:12:37;;;;;;;6.32;2.50;;;;;;;16.56;89.81;101803.34;5020790;28;20046;-72
2023/08/17 05:15:04;;;;;;;9.20;2.60;;;;;;;16.54;89.82;101795.44;5025255;28;20053;-72
2023/08/17 05:17:33;;;;;;;6.65;2.50;;;;;;;16.52;89.85;101802.59;5007808;28;20520;-72
2023/08/17 05:20:00;;;;;;;4.80;2.50;;;;;;;16.52;89.97;101802.59;5007387;28;20106;-72
2023/08/17 05:22:28;;;;;;;7.28;2.72;;;;;;;16.51;89.94;101800.88;5007323;28;20628;-72
2023/08/17 05:24:55;;;;;;;6.65;2.53;;;;;;;16.51;90.08;101805.34;5023995;28;20508;-72
2023/08/17 05:27:22;;;;;;;6.57;2.42;;;;;;;16.50;89.72;101807.13;5023250;28;20057;-72
2023/08/17 05:29:50;;;;;;;6.50;2.60;;;;;;;16.46;89.85;101809.03;5008349;28;20041;-72
2023/08/17 05:32:18;;;;;;;6.10;2.58;;;;;;;16.49;89.91;101801.88;5006469;28;20484;-72
2023/08/17 05:34:47;;;;;;;4.35;2.53;;;;;;;16.52;90.19;101802.59;5023010;28;20103;-71
2023/08/17 05:37:15;;;;;;;10.32;2.65;;;;;;;16.53;90.35;101803.50;5006984;28;20046;-72
2023/08/17 05:39:42;;;;;;;5.68;3.13;;;;;;;16.53;90.48;101801.69;5023333;28;20037;-72
2023/08/17 05:42:09;;;;;;;6.00;2.60;;;;;;;16.58;90.59;101797.03;5022648;28;20068;-72
2023/08/17 05:44:36;;;;;;;7.10;2.67;;;;;;;16.62;90.31;101797.78;5023350;28;20046;-72
2023/08/17 05:47:04;;;;;;;8.60;2.75;;;;;;;16.65;90.32;101792.31;5007521;28;20041;-72
2023/08/17 05:49:31;;;;;;;7.70;2.58;;;;;;;16.69;90.22;101801.03;5023456;28;20163;-72
2023/08/17 05:51:58;;;;;;;5.10;2.45;;;;;;;16.71;90.04;101799.19;5024726;28;20593;-72
2023/08/17 05:54:25;;;;;;;5.20;2.58;;;;;;;16.79;89.37;101796.22;5024541;28;20049;-72
2023/08/17 05:56:52;;;;;;;6.20;2.83;;;;;;;16.76;89.15;101803.41;5022896;28;20124;-72
2023/08/17 05:59:19;;;;;;;5.95;2.38;;;;;;;16.76;89.41;101808.72;5023942;28;20450;-72
2023/08/17 06:01:46;;;;;;;6.60;2.55;;;;;;;16.78;89.56;101808.69;5026925;28;20045;-71
2023/08/17 06:04:13;;;;;;;6.30;2.70;;;;;;;16.81;89.29;101813.00;5024213;28;20502;-72
2023/08/17 06:06:40;;;;;;;7.20;2.20;;;;;;;16.84;89.26;101818.22;5024349;28;20041;-72
2023/08/17 06:09:08;;;;;;;6.47;2.70;;;;;;;16.89;89.10;101825.06;5025184;28;20523;-72
2023/08/17 06:11:35;;;;;;;4.85;2.45;;;;;;;16.94;88.82;101821.38;5023755;28;20050;-72
2023/08/17 06:14:03;;;;;;;7.60;2.47;;;;;;;17.00;88.21;101824.66;5024709;28;20037;-72
2023/08/17 06:16:30;;;;;;;4.82;2.20;;;;;;;17.04;87.87;101817.41;5023327;28;20038;-72
2023/08/17 06:18:57;;;;;;;6.82;2.58;;;;;;;17.04;88.06;101820.06;5025532;28;20052;-72
2023/08/17 06:21:24;;;;;;;4.40;2.40;;;;;;;17.10;87.82;101822.47;5024704;28;20034;-72
2023/08/17 06:23:51;;;;;;;6.22;2.20;;;;;;;17.16;87.04;101824.88;5026013;28;20041;-72
2023/08/17 06:26:18;;;;;;;3.58;2.10;;;;;;;17.20;87.42;101825.63;5022158;28;20417;-72
2023/08/17 06:28:46;;;;;;;6.07;2.00;;;;;;;17.27;86.42;101823.56;5025095;28;20460;-72
2023/08/17 06:31:15;;;;;;;6.63;2.05;;;;;;;17.27;86.88;101824.41;5014816;28;20034;-72
2023/08/17 06:33:43;;;;;;;4.78;2.03;;;;;;;17.33;86.61;101821.50;5020005;28;20229;-72
2023/08/17 06:36:13;;;;;;;6.45;2.35;;;;;;;17.36;85.88;101832.00;5020633;28;20068;-72
2023/08/17 06:38:40;;;;;;;4.70;2.35;;;;;;;17.36;85.97;101823.16;5025425;28;20061;-72
2023/08/17 06:41:07;;;;;;;5.80;2.20;;;;;;;17.41;86.71;101828.28;5027389;28;20152;-72
2023/08/17 06:43:34;;;;;;;4.72;2.10;;;;;;;17.47;85.49;101830.69;5026336;28;20056;-72
2023/08/17 06:46:01;;;;;;;6.22;2.30;;;;;;;17.54;85.18;101824.16;5027587;28;20046;-72
2023/08/17 06:48:29;;;;;;;6.63;1.90;;;;;;;17.58;85.35;101823.06;5026063;28;20162;-72
2023/08/17 06:50:56;;;;;;;4.90;2.17;;;;;;;17.65;84.76;101819.19;5027704;28;20057;-72
2023/08/17 06:53:23;;;;;;;7.20;2.25;;;;;;;17.70;84.56;101825.19;5027940;28;20045;-72
2023/08/17 06:55:50;;;;;;;5.07;1.98;;;;;;;17.81;82.75;101816.69;5025706;28;20121;-72
2023/08/17 06:58:17;;;;;;;5.70;1.88;;;;;;;17.76;83.05;101824.06;5009317;28;20518;-71
2023/08/17 07:00:45;;;;;;;4.95;1.95;;;;;;;17.79;84.03;101825.72;5027388;28;20037;-73
2023/08/17 07:03:12;;;;;;;7.03;2.10;;;;;;;17.84;84.18;101823.72;5029504;28;20051;-72
2023/08/17 07:05:39;;;;;;;4.53;2.00;;;;;;;17.98;83.08;101821.31;5035405;28;20090;-72
2023/08/17 07:08:06;;;;;;;4.03;2.08;;;;;;;18.02;82.55;101822.03;5034285;28;20041;-72
2023/08/17 07:10:34;;;;;;;4.85;2.08;;;;;;;18.08;82.15;101824.44;5025967;28;20045;-72
2023/08/17 07:13:03;;;;;;;7.90;2.10;;;;;;;18.15;81.04;101828.53;5025813;28;20046;-72
2023/08/17 07:15:32;;;;;;;5.55;2.10;;;;;;;18.16;80.61;101830.25;5025798;28;20053;-72
2023/08/17 07:17:59;;;;;;;6.95;2.20;;;;;;;18.08;81.39;101829.75;5026753;28;20125;-72
2023/08/17 07:20:26;;;;;;;5.40;2.20;;;;;;;18.13;81.50;101834.88;5025999;28;20115;-72
2023/08/17 07:22:53;;;;;;;8.85;2.28;;;;;;;18.13;81.33;101827.72;5026844;28;20065;-70
2023/08/17 07:25:20;;;;;;;7.78;2.28;;;;;;;18.18;82.01;101832.84;5027132;28;20042;-71
2023/08/17 07:27:49;;;;;;;6.65;2.13;;;;;;;18.23;81.23;101837.97;5025400;28;20041;-71
2023/08/17 07:30:16;;;;;;;6.05;2.33;;;;;;;18.18;81.46;101827.50;5027411;28;20053;-71
2023/08/17 07:32:43;;;;;;;6.00;2.20;;;;;;;18.16;81.48;101835.59;5026796;28;20050;-73
2023/08/17 07:35:10;;;;;;;6.13;2.20;;;;;;;18.20;80.92;101843.47;5023936;28;20052;-72
2023/08/17 07:37:38;;;;;;;5.38;2.53;;;;;;;18.13;81.41;101840.22;5024959;28;20111;-70
2023/08/17 07:40:07;;;;;;;4.60;2.08;;;;;;;18.14;81.65;101839.28;5026207;28;20044;-73
2023/08/17 07:42:34;;;;;;;7.05;2.00;;;;;;;18.19;81.30;101839.91;5024997;28;20057;-71
2023/08/17 07:45:05;;;;;;;5.78;2.38;;;;;;;18.23;81.02;101837.97;5027497;28;20048;-71
2023/08/17 07:47:36;;;;;;;5.07;2.22;;;;;;;18.22;81.35;101839.78;5025242;28;20046;-71
2023/08/17 07:50:05;;;;;;;6.78;2.33;;;;;;;18.26;81.04;101835.16;5023124;28;20045;-71
2023/08/17 07:52:32;;;;;;;6.63;2.00;;;;;;;18.29;80.91;101830.56;5023386;28;20083;-71
2023/08/17 07:54:59;;;;;;;6.03;2.33;;;;;;;18.37;80.44;101834.66;5026057;28;20111;-72
2023/08/17 07:57:27;;;;;;;4.82;1.88;;;;;;;18.41;80.01;101836.25;5025864;28;20600;-72
2023/08/17 07:59:54;;;;;;;6.18;2.22;;;;;;;18.46;79.53;101835.09;5030131;28;20398;-73
2023/08/17 08:02:21;;;;;;;6.07;2.47;;;;;;;18.46;79.83;101839.56;5026211;28;20049;-70
2023/08/17 08:04:49;;;;;;;4.45;2.30;;;;;;;18.43;80.43;101850.38;5026582;28;20164;-71
2023/08/17 08:07:16;;;;;;;5.43;2.10;;;;;;;18.46;79.58;101851.09;5026032;28;20045;-72
2023/08/17 08:09:43;;;;;;;4.22;2.25;;;;;;;18.39;79.92;101847.00;5026318;28;20091;-71
2023/08/17 08:12:10;;;;;;;4.53;2.08;;;;;;;18.37;80.27;101848.00;5025107;28;20048;-72
2023/08/17 08:14:37;;;;;;;5.88;2.22;;;;;;;18.40;80.86;101861.19;5008499;28;20045;-71
2023/08/17 08:17:04;;;;;;;4.72;2.17;;;;;;;18.37;80.29;101859.56;5026142;28;20045;-72
2023/08/17 08:19:32;;;;;;;8.80;2.83;;;;;;;18.34;80.59;101851.69;5026849;28;20041;-72
2023/08/17 08:21:59;;;;;;;4.53;2.53;;;;;;;18.37;80.71;101856.00;5025344;28;20050;-71
2023/08/17 08:24:31;;;;;;;4.85;2.40;;;;;;;18.39;80.15;101854.13;5026153;28;20088;-72
2023/08/17 08:27:01;;;;;;;;;;;;;;;18.36;81.07;101849.81;5025638;28;20330;-72
2023/08/17 08:29:28;;;;;;;6.63;2.30;;;;;;;18.43;81.35;101850.38;5026101;28;20311;-72
2023/08/17 08:31:57;;;;;;;6.78;2.90;;;;;;;18.54;80.89;101858.75;5025162;28;20037;-72
2023/08/17 08:34:24;;;;;;;5.10;2.42;;;;;;;18.61;80.33;101859.34;5025497;28;20052;-72
2023/08/17 08:36:51;;;;;;;6.22;2.53;;;;;;;18.63;80.54;101857.44;5025476;28;20100;-72
2023/08/17 08:39:18;;;;;;;5.95;2.67;;;;;;;18.68;80.21;101855.41;5024612;28;20092;-72
2023/08/17 08:41:45;;;;;;;5.03;2.47;;;;;;;18.72;79.84;101856.13;5026239;28;20042;-72
2023/08/17 08:44:12;;;;;;;8.00;3.17;;;;;;;18.77;79.33;101846.94;5023814;28;20056;-72
2023/08/17 08:46:43;;;;;;;10.27;3.10;;;;;;;18.83;79.20;101855.59;5025888;28;20049;-72
2023/08/17 08:49:12;;;;;;;8.45;3.30;;;;;;;18.84;78.78;101858.22;5025636;28;20627;-72
2023/08/17 08:51:45;;;;;;;5.53;3.03;;;;;;;18.82;79.11;101860.09;5025810;28;20053;-72
2023/08/17 08:54:24;;;;;;;6.50;3.60;;;;;;;18.86;78.66;101864.34;5020243;28;20411;-72
2023/08/17 08:57:01;;;;;;;9.25;3.60;;;;;;;18.82;78.94;101853.88;5024292;28;20639;-72
2023/08/17 08:59:29;;;;;;;13.48;4.45;;;;;;;18.82;79.42;101862.75;5025240;28;20052;-72
2023/08/17 09:01:58;;;;;;;8.68;3.78;;;;;;;18.87;79.20;101851.84;5027880;28;20041;-72
2023/08/17 09:04:26;;;;;;;11.30;4.20;;;;;;;18.90;79.08;101855.22;5025085;28;20037;-72
2023/08/17 09:06:55;;;;;;;8.45;3.85;;;;;;;18.91;78.49;101851.63;5024649;28;20037;-72
2023/08/17 09:09:23;;;;;;;10.50;4.05;;;;;;;18.90;78.03;101855.22;5024723;28;20460;-73
2023/08/17 09:11:56;;;;;;;8.77;3.97;;;;;;;18.80;78.64;101845.94;5025682;28;20041;-72
2023/08/17 09:14:23;;;;;;;12.27;4.15;;;;;;;18.77;79.31;101840.75;5024343;28;20299;-72
2023/08/17 09:16:50;;;;;;;13.38;4.32;;;;;;;18.81;79.07;101836.13;5024661;28;20095;-71
2023/08/17 09:19:19;;;;;;;11.38;4.80;;;;;;;18.84;79.47;101846.63;5025330;28;20041;-71
2023/08/17 09:21:47;;;;;;;8.40;4.50;;;;;;;18.87;79.29;101828.66;5024714;28;20541;-71
2023/08/17 09:24:17;;;;;;;9.23;4.45;;;;;;;18.92;79.71;101825.78;5024554;28;20053;-72
2023/08/17 09:26:44;;;;;;;7.35;4.43;;;;;;;19.05;78.51;101826.06;5024042;28;20041;-72
2023/08/17 09:29:20;;;;;;;9.68;4.30;;;;;;;19.16;78.45;101825.50;5024136;28;20144;-72
2023/08/17 09:31:47;;;;;;;9.23;4.68;;;;;;;19.18;78.12;101816.44;5024934;28;20112;-72
2023/08/17 09:34:16;;;;;;;9.25;4.15;;;;;;;19.26;77.96;101820.56;5009448;28;20522;-71
2023/08/17 09:36:47;;;;;;;9.13;3.90;;;;;;;19.24;78.43;101821.50;5005787;28;20048;-72
2023/08/17 09:39:18;;;;;;;11.43;4.80;;;;;;;19.26;78.99;101826.75;5019704;28;20153;-72
2023/08/17 09:41:45;;;;;;;9.85;4.60;;;;;;;19.34;78.43;101821.00;5023454;28;20050;-72
2023/08/17 09:44:12;;;;;;;11.48;4.50;;;;;;;19.39;78.44;101813.59;5022994;28;20077;-73
2023/08/17 09:46:44;;;;;;;10.57;4.63;;;;;;;19.51;77.69;101815.63;5020911;28;20072;-70
2023/08/17 09:49:11;;;;;;;8.20;3.47;;;;;;;19.63;77.47;101811.47;5022066;28;20465;-72
2023/08/17 09:51:38;;;;;;;9.27;4.10;;;;;;;19.79;77.34;101814.16;5024808;28;20132;-72
2023/08/17 09:54:23;;;;;;;8.35;4.18;;;;;;;19.96;75.92;101810.59;5025248;28;20463;-72
2023/08/17 09:56:52;;;;;;;10.50;3.78;;;;;;;19.96;76.18;101809.75;5014132;28;20513;-71
2023/08/17 09:59:20;;;;;;;7.03;3.78;;;;;;;20.00;75.14;101816.66;5025767;28;20053;-72
2023/08/17 10:01:50;;;;;;;6.95;3.80;;;;;;;20.00;74.10;101811.28;5024401;28;20049;-73
2023/08/17 10:04:23;;;;;;;10.20;4.13;;;;;;;19.82;75.12;101808.66;5024548;28;20192;-72
2023/08/17 10:07:02;;;;;;;9.75;4.57;;;;;;;19.83;74.99;101813.06;5024915;28;20039;-71
2023/08/17 10:09:44;;;;;;;6.82;3.47;;;;;;;19.77;75.15;101810.72;5024848;28;20071;-72
2023/08/17 10:12:17;;;;;;;9.93;3.75;;;;;;;19.82;75.16;101810.47;5024491;28;20046;-73
2023/08/17 10:14:57;;;;;;;7.53;4.03;;;;;;;19.79;75.40;101811.47;5026501;28;20432;-73
2023/08/17 10:17:39;;;;;;;7.97;4.00;;;;;;;19.79;75.76;101808.81;5028397;28;20045;-72
2023/08/17 10:20:08;;;;;;;7.25;3.90;;;;;;;19.86;75.32;101809.38;5018206;28;20041;-72
2023/08/17 10:22:51;;;;;;;10.43;4.05;;;;;;;19.84;74.89;101806.75;5027477;28;20285;-73
2023/08/17 10:25:21;;;;;;;6.78;3.45;;;;;;;19.78;75.34;101800.88;5028287;28;20049;-71
2023/08/17 10:27:53;;;;;;;8.35;4.10;;;;;;;19.74;75.68;101802.84;5027135;28;20096;-71
2023/08/17 10:30:27;;;;;;;7.35;3.97;;;;;;;19.77;75.44;101802.69;5027278;28;20041;-72
2023/08/17 10:32:55;;;;;;;9.75;3.97;;;;;;;19.76;75.61;101803.66;5028554;28;20041;-71
2023/08/17 10:35:23;;;;;;;9.80;3.90;;;;;;;19.82;75.39;101802.44;5028038;28;20041;-71
2023/08/17 10:37:51;;;;;;;8.55;4.32;;;;;;;19.83;75.00;101797.00;5028106;28;20514;-71
2023/08/17 10:40:27;;;;;;;10.02;4.20;;;;;;;19.85;75.33;101789.81;5028000;28;20057;-72
2023/08/17 10:42:56;;;;;;;7.57;4.35;;;;;;;19.87;75.75;101795.06;5026863;28;20045;-71
2023/08/17 10:45:34;;;;;;;9.32;5.13;;;;;;;19.90;75.06;101789.56;5027127;28;20048;-71
2023/08/17 10:48:05;;;;;;;8.98;4.40;;;;;;;19.85;75.63;101784.44;5008335;28;20059;-71
2023/08/17 10:50:33;;;;;;;8.40;4.63;;;;;;;19.86;75.49;101786.19;5013826;28;20047;-71
2023/08/17 10:53:08;;;;;;;7.68;4.93;;;;;;;19.80;75.59;101785.63;5027297;28;20764;-71
2023/08/17 10:55:43;;;;;;;10.30;5.47;;;;;;;19.77;76.38;101789.31;5026743;28;20520;-72
2023/08/17 10:58:11;;;;;;;9.88;5.15;;;;;;;19.85;76.17;101787.13;5027376;28;20076;-71
2023/08/17 11:00:44;;;;;;;9.40;5.07;;;;;;;19.97;76.25;101788.25;5028772;28;20037;-71
2023/08/17 11:03:20;;;;;;;9.38;4.95;;;;;;;20.17;75.11;101784.47;5008818;28;20045;-72
2023/08/17 11:05:52;;;;;;;10.95;4.88;;;;;;;20.27;75.89;101789.31;5026591;28;20045;-72
2023/08/17 11:08:31;;;;;;;8.98;4.93;;;;;;;20.38;75.59;101802.09;5027578;28;20037;-72
2023/08/17 11:11:03;;;;;;;11.70;5.20;;;;;;;20.45;75.09;101798.97;5026887;28;20052;-71
2023/08/17 11:13:37;;;;;;;10.10;4.90;;;;;;;20.48;73.97;101798.81;5028172;28;20045;-71
2023/08/17 11:16:06;;;;;;;9.88;4.97;;;;;;;20.41;74.83;101796.56;5026639;28;20132;-72
2023/08/17 11:18:34;;;;;;;12.88;4.57;;;;;;;20.38;75.52;101802.97;5026253;28;20052;-71
2023/08/17 11:21:04;;;;;;;8.82;5.10;;;;;;;20.46;75.14;101799.81;5026090;28;20053;-72
2023/08/17 11:23:34;;;;;;;7.93;4.72;;;;;;;20.51;74.33;101804.91;5027383;28;20624;-71
2023/08/17 11:26:02;;;;;;;8.65;5.18;;;;;;;20.53;74.91;101801.22;5026464;28;20492;-72
2023/08/17 11:28:36;;;;;;;7.72;5.00;;;;;;;20.61;75.18;101796.28;5027614;28;20410;-72
2023/08/17 11:31:12;;;;;;;9.77;5.07;;;;;;;20.69;73.80;101805.69;5026679;28;20100;-72